createdAt,value
2019-01-06T00:00:38.406Z,4.91
2019-01-06T00:03:38.400Z,4.90
2019-01-06T00:06:24.298Z,4.91
2019-01-06T00:09:14.513Z,4.92
2019-01-06T00:12:04.335Z,4.90
2019-01-06T00:15:01.310Z,4.91
2019-01-06T00:17:52.534Z,4.94
2019-01-06T00:20:56.106Z,4.91
2019-01-06T00:23:46.985Z,4.89
2019-01-06T00:26:37.029Z,4.93
2019-01-06T00:29:23.650Z,4.90
2019-01-06T00:32:19.069Z,4.90
2019-01-06T00:35:09.215Z,4.91
2019-01-06T00:38:03.870Z,4.90
2019-01-06T00:40:59.444Z,4.91
2019-01-06T00:43:53.475Z,4.92
2019-01-06T00:46:43.199Z,4.91
2019-01-06T00:49:36.598Z,4.90
2019-01-06T00:52:30.380Z,4.91
2019-01-06T00:55:33.717Z,4.92
2019-01-06T00:58:42.799Z,4.93
2019-01-06T01:01:33.383Z,4.93
2019-01-06T01:04:39.629Z,4.91
2019-01-06T01:07:37.833Z,4.91
2019-01-06T01:10:39.141Z,4.92
2019-01-06T01:13:30.331Z,4.92
2019-01-06T01:16:16.812Z,4.91
2019-01-06T01:19:17.382Z,4.91
2019-01-06T01:22:17.861Z,4.92
2019-01-06T01:25:11.882Z,4.90
2019-01-06T01:28:01.566Z,4.88
2019-01-06T01:31:03.395Z,4.88
2019-01-06T01:33:53.786Z,4.88
2019-01-06T01:36:48.136Z,4.88
2019-01-06T01:39:45.618Z,4.90
2019-01-06T01:42:55.019Z,4.87
2019-01-06T01:45:49.218Z,4.89
2019-01-06T01:48:33.824Z,4.89
2019-01-06T01:51:31.343Z,4.87
2019-01-06T01:54:24.506Z,4.89
2019-01-06T01:57:33.635Z,4.88
2019-01-06T02:00:25.169Z,4.88
2019-01-06T02:03:16.371Z,4.89
2019-01-06T02:06:22.925Z,4.88
2019-01-06T02:09:12.945Z,4.89
2019-01-06T02:12:03.118Z,4.89
2019-01-06T02:14:52.901Z,4.90
2019-01-06T02:17:51.907Z,4.90
2019-01-06T02:20:41.741Z,4.91
2019-01-06T02:23:31.738Z,4.89
2019-01-06T02:26:16.331Z,4.91
2019-01-06T02:29:19.596Z,4.88
2019-01-06T02:32:09.476Z,4.88
2019-01-06T02:35:18.734Z,4.87
2019-01-06T02:38:03.831Z,4.86
2019-01-06T02:40:53.654Z,4.87
2019-01-06T02:43:48.274Z,4.87
2019-01-06T02:46:45.350Z,4.89
2019-01-06T02:49:36.193Z,4.86
2019-01-06T02:52:30.526Z,4.86
2019-01-06T02:55:30.645Z,4.86
2019-01-06T02:58:31.249Z,4.85
2019-01-06T03:01:18.486Z,4.85
2019-01-06T03:04:01.029Z,4.84
2019-01-06T03:06:52.509Z,4.83
2019-01-06T03:09:56.140Z,4.83
2019-01-06T03:12:49.838Z,4.81
2019-01-06T03:19:14.870Z,4.86
2019-01-06T03:22:18.345Z,4.83
2019-01-06T03:25:24.376Z,4.82
2019-01-06T03:28:27.684Z,4.81
2019-01-06T03:31:11.761Z,4.80
2019-01-06T03:34:21.454Z,4.79
2019-01-06T03:37:21.304Z,4.80
2019-01-06T03:40:21.773Z,4.83
2019-01-06T03:43:02.094Z,4.81
2019-01-06T03:45:52.226Z,4.83
2019-01-06T03:48:42.447Z,4.82
2019-01-06T03:51:25.994Z,4.82
2019-01-06T03:54:14.859Z,4.83
2019-01-06T03:57:21.109Z,4.83
2019-01-06T04:00:18.314Z,4.83
2019-01-06T04:03:09.587Z,4.81
2019-01-06T04:06:13.207Z,4.82
2019-01-06T04:09:05.428Z,4.84
2019-01-06T04:12:02.562Z,4.80
2019-01-06T04:15:02.949Z,4.83
2019-01-06T04:17:54.445Z,4.81
2019-01-06T04:20:44.530Z,4.83
2019-01-06T04:23:52.231Z,4.81
2019-01-06T04:26:42.273Z,4.80
2019-01-06T04:29:32.578Z,4.81
2019-01-06T04:32:28.624Z,4.81
2019-01-06T04:35:29.140Z,4.80
2019-01-06T04:38:27.082Z,4.78
2019-01-06T04:41:17.612Z,4.77
2019-01-06T04:44:07.625Z,4.76
2019-01-06T04:47:17.232Z,4.75
2019-01-06T04:50:07.086Z,4.76
2019-01-06T04:53:04.159Z,4.78
2019-01-06T04:55:54.079Z,4.78
2019-01-06T04:58:48.352Z,4.75
2019-01-06T05:01:38.293Z,4.77
2019-01-06T05:04:45.180Z,4.76
2019-01-06T05:07:42.433Z,4.77
2019-01-06T05:10:32.744Z,4.75
2019-01-06T05:13:23.932Z,4.74
2019-01-06T05:16:20.987Z,4.75
2019-01-06T05:19:11.622Z,4.76
2019-01-06T05:22:01.376Z,4.75
2019-01-06T05:24:51.395Z,4.76
2019-01-06T05:27:45.760Z,4.75
2019-01-06T05:30:35.521Z,4.74
2019-01-06T05:33:35.850Z,4.74
2019-01-06T05:36:29.798Z,4.72
2019-01-06T05:39:35.483Z,4.73
2019-01-06T05:42:41.773Z,4.73
2019-01-06T05:45:26.960Z,4.73
2019-01-06T05:48:18.784Z,4.74
2019-01-06T05:51:19.023Z,4.73
2019-01-06T05:54:09.073Z,4.73
2019-01-06T05:57:01.011Z,4.72
2019-01-06T05:59:56.982Z,4.72
2019-01-06T06:02:40.887Z,4.73
2019-01-06T06:05:38.930Z,4.71
2019-01-06T06:08:28.123Z,4.70
2019-01-06T06:11:18.182Z,4.70
2019-01-06T06:14:09.429Z,4.70
2019-01-06T06:17:06.661Z,4.71
2019-01-06T06:20:06.846Z,4.72
2019-01-06T06:22:57.354Z,4.73
2019-01-06T06:25:57.904Z,4.73
2019-01-06T06:28:57.299Z,4.72
2019-01-06T06:31:48.858Z,4.72
2019-01-06T06:34:39.066Z,4.73
2019-01-06T06:37:34.459Z,4.72
2019-01-06T06:40:31.763Z,4.71
2019-01-06T06:43:13.731Z,4.72
2019-01-06T06:46:17.305Z,4.72
2019-01-06T06:49:06.374Z,4.73
2019-01-06T06:51:51.216Z,4.72
2019-01-06T06:54:48.535Z,4.72
2019-01-06T06:58:37.822Z,4.73
2019-01-06T07:02:22.457Z,4.73
2019-01-06T07:05:10.926Z,4.71
2019-01-06T07:08:00.847Z,4.71
2019-01-06T07:10:50.920Z,4.71
2019-01-06T07:13:57.207Z,4.69
2019-01-06T07:17:52.277Z,4.70
2019-01-06T07:20:43.233Z,4.71
2019-01-06T07:23:37.470Z,4.68
2019-01-06T07:26:31.603Z,4.71
2019-01-06T07:29:28.725Z,4.71
2019-01-06T07:32:18.572Z,4.71
2019-01-06T07:35:13.079Z,4.71
2019-01-06T07:38:02.957Z,4.73
2019-01-06T07:41:09.161Z,4.74
2019-01-06T07:43:59.369Z,4.75
2019-01-06T07:46:50.047Z,4.74
2019-01-06T07:49:50.740Z,4.76
2019-01-06T07:52:50.795Z,4.74
2019-01-06T07:55:40.178Z,4.76
2019-01-06T07:58:39.817Z,4.77
2019-01-06T08:01:46.340Z,4.79
2019-01-06T08:04:47.894Z,4.79
2019-01-06T08:07:37.803Z,4.81
2019-01-06T08:10:35.016Z,4.84
2019-01-06T08:13:33.224Z,4.87
2019-01-06T08:16:28.915Z,4.88
2019-01-06T08:19:19.045Z,4.92
2019-01-06T08:22:13.021Z,4.96
2019-01-06T08:25:01.329Z,5.01
2019-01-06T08:27:50.963Z,5.06
2019-01-06T08:30:50.977Z,5.08
2019-01-06T08:33:41.163Z,5.11
2019-01-06T08:36:30.940Z,5.11
2019-01-06T08:39:21.211Z,5.15
2019-01-06T08:42:12.474Z,5.19
2019-01-06T08:45:02.842Z,5.23
2019-01-06T08:47:56.948Z,5.29
2019-01-06T08:50:56.842Z,5.24
2019-01-06T08:54:02.544Z,5.05
2019-01-06T08:56:53.812Z,4.75
2019-01-06T08:59:57.382Z,5.02
2019-01-06T09:03:06.397Z,5.01
2019-01-06T09:06:09.875Z,4.93
2019-01-06T09:08:53.607Z,4.91
2019-01-06T09:11:51.086Z,4.88
2019-01-06T09:14:45.316Z,4.90
2019-01-06T09:17:45.406Z,4.79
2019-01-06T09:20:36.632Z,4.87
2019-01-06T09:23:19.478Z,4.84
2019-01-06T09:26:25.449Z,4.79
2019-01-06T09:29:34.830Z,4.71
2019-01-06T09:32:25.161Z,4.74
2019-01-06T09:35:15.353Z,4.74
2019-01-06T09:38:06.587Z,4.74
2019-01-06T09:40:56.504Z,4.74
2019-01-06T09:43:48.533Z,4.76
2019-01-06T09:46:42.800Z,4.83
2019-01-06T09:49:32.686Z,4.89
2019-01-06T09:52:39.243Z,4.87
2019-01-06T09:55:40.037Z,4.91
2019-01-06T09:58:43.811Z,4.76
2019-01-06T10:01:38.242Z,4.80
2019-01-06T10:04:35.360Z,4.66
2019-01-06T10:07:39.321Z,4.78
2019-01-06T10:10:33.404Z,4.87
2019-01-06T10:13:23.520Z,4.98
2019-01-06T10:16:26.767Z,5.00
2019-01-06T10:19:23.831Z,4.99
2019-01-06T10:22:17.964Z,4.96
2019-01-06T10:25:07.867Z,4.99
2019-01-06T10:28:01.793Z,5.07
2019-01-06T10:30:51.233Z,5.17
2019-01-06T10:33:41.033Z,5.20
2019-01-06T10:36:38.450Z,5.32
2019-01-06T10:39:28.641Z,5.43
2019-01-06T10:42:18.687Z,5.44
2019-01-06T10:45:24.266Z,5.50
2019-01-06T10:48:17.367Z,5.66
2019-01-06T10:51:27.267Z,5.70
2019-01-06T10:54:15.126Z,5.72
2019-01-06T10:57:15.556Z,5.80
2019-01-06T11:00:07.231Z,5.89
2019-01-06T11:02:56.243Z,5.96
2019-01-06T11:05:51.359Z,5.85
2019-01-06T11:08:41.796Z,5.97
2019-01-06T11:11:36.075Z,5.94
2019-01-06T11:14:25.938Z,6.00
2019-01-06T11:17:16.630Z,6.07
2019-01-06T11:20:07.310Z,6.19
2019-01-06T11:22:57.265Z,6.33
2019-01-06T11:25:43.996Z,6.46
2019-01-06T11:28:34.078Z,6.51
2019-01-06T11:31:43.609Z,6.36
2019-01-06T11:34:40.945Z,6.26
2019-01-06T11:37:30.648Z,6.41
2019-01-06T11:40:30.997Z,6.39
2019-01-06T11:43:22.175Z,6.36
2019-01-06T11:46:13.373Z,6.35
2019-01-06T11:49:03.523Z,6.67
2019-01-06T11:51:58.213Z,6.63
2019-01-06T11:54:52.518Z,6.74
2019-01-06T11:57:56.961Z,6.73
2019-01-06T12:00:59.515Z,6.90
2019-01-06T12:04:02.812Z,6.96
2019-01-06T12:06:53.418Z,6.96
2019-01-06T12:09:43.530Z,6.94
2019-01-06T12:12:35.022Z,6.98
2019-01-06T12:15:26.344Z,6.85
2019-01-06T12:18:16.549Z,6.80
2019-01-06T12:21:05.804Z,6.78
2019-01-06T12:23:55.811Z,6.87
2019-01-06T12:26:51.261Z,6.85
2019-01-06T12:29:41.081Z,6.72
2019-01-06T12:32:33.317Z,6.78
2019-01-06T12:35:29.120Z,6.80
2019-01-06T12:38:19.458Z,6.87
2019-01-06T12:41:09.493Z,6.83
2019-01-06T12:44:14.584Z,6.80
2019-01-06T12:47:04.803Z,6.87
2019-01-06T12:49:54.909Z,6.71
2019-01-06T12:52:45.095Z,6.78
2019-01-06T12:55:32.339Z,6.72
2019-01-06T12:58:22.435Z,6.86
2019-01-06T13:01:12.565Z,6.74
2019-01-06T13:04:02.678Z,6.70
2019-01-06T13:06:56.831Z,6.49
2019-01-06T13:09:48.109Z,6.46
2019-01-06T13:12:38.197Z,6.84
2019-01-06T13:15:32.715Z,6.40
2019-01-06T13:18:27.116Z,6.56
2019-01-06T13:21:24.542Z,6.33
2019-01-06T13:24:17.676Z,6.42
2019-01-06T13:27:07.199Z,6.35
2019-01-06T13:30:16.496Z,6.47
2019-01-06T13:33:10.852Z,6.67
2019-01-06T13:36:00.974Z,6.73
2019-01-06T13:39:01.627Z,6.41
2019-01-06T13:41:51.804Z,6.19
2019-01-06T13:44:54.921Z,6.19
2019-01-06T13:47:50.193Z,6.19
2019-01-06T13:51:00.018Z,6.08
2019-01-06T13:54:03.842Z,6.07
2019-01-06T13:57:09.841Z,6.00
2019-01-06T14:00:02.339Z,5.88
2019-01-06T14:03:08.924Z,5.72
2019-01-06T14:06:03.280Z,5.68
2019-01-06T14:08:54.089Z,5.70
2019-01-06T14:11:51.999Z,5.63
2019-01-06T14:15:01.887Z,5.59
2019-01-06T14:17:53.157Z,5.53
2019-01-06T14:20:53.364Z,5.58
2019-01-06T14:23:47.570Z,5.67
2019-01-06T14:26:38.772Z,5.58
2019-01-06T14:29:28.998Z,5.58
2019-01-06T14:32:19.434Z,5.42
2019-01-06T14:35:11.074Z,5.47
2019-01-06T14:38:11.641Z,5.39
2019-01-06T14:41:10.178Z,5.42
2019-01-06T14:44:10.625Z,5.49
2019-01-06T14:46:59.684Z,5.58
2019-01-06T14:50:02.962Z,5.39
2019-01-06T14:52:56.943Z,5.02
2019-01-06T14:55:46.891Z,5.26
2019-01-06T14:58:43.726Z,5.30
2019-01-06T15:01:41.124Z,5.31
2019-01-06T15:04:32.318Z,5.26
2019-01-06T15:07:39.047Z,5.30
2019-01-06T15:10:30.039Z,5.24
2019-01-06T15:13:33.568Z,5.13
2019-01-06T15:16:36.419Z,5.26
2019-01-06T15:19:33.984Z,5.22
2019-01-06T15:22:27.947Z,5.14
2019-01-06T15:25:09.070Z,5.11
2019-01-06T15:28:06.915Z,5.08
2019-01-06T15:30:57.220Z,5.16
2019-01-06T15:33:43.908Z,5.04
2019-01-06T15:36:40.333Z,4.92
2019-01-06T15:39:31.548Z,4.89
2019-01-06T15:42:28.704Z,4.90
2019-01-06T15:45:22.776Z,4.87
2019-01-06T15:48:21.665Z,4.79
2019-01-06T15:51:24.508Z,4.89
2019-01-06T15:54:18.565Z,5.00
2019-01-06T15:57:22.256Z,5.15
2019-01-06T16:00:15.951Z,5.01
2019-01-06T16:03:22.152Z,4.99
2019-01-06T16:06:13.378Z,4.91
2019-01-06T16:09:07.809Z,4.80
2019-01-06T16:12:08.466Z,4.69
2019-01-06T16:14:59.659Z,4.93
2019-01-06T16:17:55.059Z,4.80
2019-01-06T16:20:56.093Z,4.93
2019-01-06T16:23:56.628Z,4.78
2019-01-06T16:27:00.200Z,4.82
2019-01-06T16:29:50.213Z,4.85
2019-01-06T16:32:44.575Z,4.90
2019-01-06T16:35:39.209Z,4.83
2019-01-06T16:38:30.558Z,4.74
2019-01-06T16:41:20.708Z,4.77
2019-01-06T16:44:10.811Z,4.84
2019-01-06T16:47:02.184Z,4.75
2019-01-06T16:49:53.588Z,4.60
2019-01-06T16:52:43.455Z,4.62
2019-01-06T16:55:34.687Z,4.54
2019-01-06T16:58:24.707Z,4.65
2019-01-06T17:01:11.240Z,4.63
2019-01-06T17:04:05.311Z,4.60
2019-01-06T17:06:58.533Z,4.56
2019-01-06T17:09:48.227Z,4.60
2019-01-06T17:12:37.826Z,4.49
2019-01-06T17:15:19.501Z,4.63
2019-01-06T17:18:09.504Z,4.63
2019-01-06T17:21:01.493Z,4.61
2019-01-06T17:24:01.878Z,4.60
2019-01-06T17:27:12.929Z,4.60
2019-01-06T17:30:02.984Z,4.57
2019-01-06T17:33:09.693Z,4.58
2019-01-06T17:36:03.546Z,4.58
2019-01-06T17:38:54.498Z,4.59
2019-01-06T17:41:45.745Z,4.61
2019-01-06T17:44:35.919Z,4.61
2019-01-06T17:47:26.159Z,4.67
2019-01-06T17:50:18.595Z,4.68
2019-01-06T17:53:13.108Z,4.69
2019-01-06T17:56:02.968Z,4.75
2019-01-06T17:58:54.430Z,4.82
2019-01-06T18:01:44.337Z,4.84
2019-01-06T18:04:42.841Z,4.86
2019-01-06T18:07:33.615Z,4.89
2019-01-06T18:10:25.119Z,4.87
2019-01-06T18:13:15.205Z,4.88
2019-01-06T18:16:05.429Z,4.87
2019-01-06T18:19:00.143Z,4.90
2019-01-06T18:21:50.602Z,4.91
2019-01-06T18:24:40.440Z,4.90
2019-01-06T18:27:43.927Z,4.91
2019-01-06T18:30:32.791Z,4.91
2019-01-06T18:33:24.393Z,4.94
2019-01-06T18:36:25.367Z,4.94
2019-01-06T18:39:27.813Z,4.95
2019-01-06T18:42:37.962Z,4.97
2019-01-06T18:45:27.954Z,4.98
2019-01-06T18:48:14.406Z,4.98
2019-01-06T18:51:07.910Z,5.00
2019-01-06T18:53:58.154Z,5.02
2019-01-06T18:56:52.415Z,5.04
2019-01-06T18:59:43.621Z,5.03
2019-01-06T19:02:41.391Z,5.03
2019-01-06T19:05:31.277Z,5.07
2019-01-06T19:08:28.656Z,5.06
2019-01-06T19:11:20.249Z,5.06
2019-01-06T19:14:17.638Z,5.06
2019-01-06T19:17:21.626Z,5.08
2019-01-06T19:20:21.812Z,5.06
2019-01-06T19:23:25.062Z,5.07
2019-01-06T19:26:16.298Z,5.08
2019-01-06T19:29:13.744Z,5.07
2019-01-06T19:32:03.523Z,5.11
2019-01-06T19:34:53.577Z,5.12
2019-01-06T19:37:44.104Z,5.12
2019-01-06T19:40:34.214Z,5.12
2019-01-06T19:43:24.436Z,5.11
2019-01-06T19:46:25.959Z,5.11
2019-01-06T19:49:17.333Z,5.11
2019-01-06T19:52:12.885Z,5.11
2019-01-06T19:54:59.581Z,5.12
2019-01-06T19:57:56.932Z,5.09
2019-01-06T20:01:00.537Z,5.08
2019-01-06T20:04:00.815Z,5.11
2019-01-06T20:07:00.864Z,5.07
2019-01-06T20:09:58.141Z,5.09
2019-01-06T20:12:52.327Z,5.07
2019-01-06T20:15:50.459Z,5.07
2019-01-06T20:18:57.228Z,5.05
2019-01-06T20:21:47.969Z,5.06
2019-01-06T20:24:50.426Z,5.06
2019-01-06T20:27:40.471Z,5.06
2019-01-06T20:30:34.799Z,5.07
2019-01-06T20:33:31.988Z,5.06
2019-01-06T20:36:26.000Z,5.05
2019-01-06T20:39:14.770Z,5.05
2019-01-06T20:42:04.102Z,5.05
2019-01-06T20:44:54.973Z,5.06
2019-01-06T20:47:48.945Z,5.04
2019-01-06T20:50:50.743Z,5.03
2019-01-06T20:53:53.665Z,5.03
2019-01-06T20:56:43.654Z,5.03
2019-01-06T20:59:33.834Z,5.02
2019-01-06T21:02:24.543Z,5.02
2019-01-06T21:05:22.655Z,5.00
2019-01-06T21:08:16.905Z,4.98
2019-01-06T21:11:23.246Z,4.99
2019-01-06T21:14:28.604Z,4.97
2019-01-06T21:17:18.802Z,4.98
2019-01-06T21:20:13.184Z,4.95
2019-01-06T21:23:22.863Z,4.96
2019-01-06T21:26:17.075Z,4.93
2019-01-06T21:29:10.854Z,4.96
2019-01-06T21:32:04.876Z,4.97
2019-01-06T21:35:08.703Z,4.94
2019-01-06T21:38:00.694Z,4.94
2019-01-06T21:40:50.937Z,4.94
2019-01-06T21:44:00.204Z,4.95
2019-01-06T21:46:56.441Z,4.94
2019-01-06T21:49:46.416Z,4.93
2019-01-06T21:52:37.269Z,4.94
2019-01-06T21:55:40.739Z,4.93
2019-01-06T21:58:31.689Z,4.92
2019-01-06T22:01:35.079Z,4.94
2019-01-06T22:04:37.885Z,4.93
2019-01-06T22:07:32.107Z,4.91
2019-01-06T22:10:22.304Z,4.90
2019-01-06T22:13:15.246Z,4.91
2019-01-06T22:16:05.685Z,4.88
2019-01-06T22:18:59.828Z,4.91
2019-01-06T22:21:49.722Z,4.89
2019-01-06T22:24:38.954Z,4.87
2019-01-06T22:27:34.026Z,4.88
2019-01-06T22:30:29.629Z,4.85
2019-01-06T22:33:35.306Z,4.84
2019-01-06T22:36:29.570Z,4.83
2019-01-06T22:39:11.066Z,4.80
2019-01-06T22:41:57.834Z,4.79
2019-01-06T22:44:47.968Z,4.76
2019-01-06T22:47:38.184Z,4.76
2019-01-06T22:50:20.863Z,4.76
2019-01-06T22:53:11.147Z,4.75
2019-01-06T22:56:07.884Z,4.74
2019-01-06T22:59:15.617Z,4.73
2019-01-06T23:02:05.362Z,4.68
2019-01-06T23:04:55.347Z,4.69
2019-01-06T23:07:45.193Z,4.67
2019-01-06T23:10:35.055Z,4.70
2019-01-06T23:13:25.170Z,4.67
2019-01-06T23:16:23.112Z,4.65
2019-01-06T23:19:13.486Z,4.66
2019-01-06T23:22:03.969Z,4.68
2019-01-06T23:24:53.851Z,4.64
2019-01-06T23:27:37.103Z,4.64
2019-01-06T23:30:26.657Z,4.64
2019-01-06T23:33:17.028Z,4.62
2019-01-06T23:36:12.573Z,4.61
2019-01-06T23:39:19.055Z,4.61
2019-01-06T23:42:22.316Z,4.58
2019-01-06T23:45:25.934Z,4.57
2019-01-06T23:48:20.155Z,4.53
2019-01-06T23:51:14.778Z,4.58
2019-01-06T23:54:15.137Z,4.55
2019-01-06T23:57:05.430Z,4.54
2019-01-06T23:59:55.270Z,4.53
